createdAt,value
2022-09-22T00:01:22.264Z,7.84
2022-09-22T00:04:27.623Z,7.80
2022-09-22T00:07:32.938Z,7.78
2022-09-22T00:10:37.827Z,7.74
2022-09-22T00:13:44.303Z,7.79
2022-09-22T00:16:52.565Z,7.73
2022-09-22T00:19:57.634Z,7.66
2022-09-22T00:23:02.854Z,7.62
2022-09-22T00:26:09.012Z,7.67
2022-09-22T00:29:17.678Z,7.49
2022-09-22T00:32:23.870Z,7.47
2022-09-22T00:35:28.844Z,7.56
2022-09-22T00:38:34.242Z,7.57
2022-09-22T00:41:42.157Z,7.43
2022-09-22T00:44:48.072Z,7.40
2022-09-22T00:47:54.667Z,7.36
2022-09-22T00:51:02.797Z,7.34
2022-09-22T00:54:14.986Z,7.31
2022-09-22T00:57:24.202Z,7.29
2022-09-22T01:00:32.049Z,7.30
2022-09-22T01:03:41.264Z,7.34
2022-09-22T01:06:48.572Z,7.34
2022-09-22T01:09:56.459Z,7.32
2022-09-22T01:13:18.309Z,7.24
2022-09-22T01:16:37.321Z,7.29
2022-09-22T01:20:21.334Z,7.23
2022-09-22T01:24:12.564Z,7.17
2022-09-22T01:27:51.224Z,7.13
2022-09-22T01:31:05.444Z,7.13
2022-09-22T01:34:19.881Z,7.06
2022-09-22T01:37:31.994Z,7.07
2022-09-22T01:40:45.963Z,7.07
2022-09-22T01:43:55.445Z,7.05
2022-09-22T01:47:07.415Z,7.03
2022-09-22T01:50:18.272Z,7.10
2022-09-22T01:53:29.149Z,7.12
2022-09-22T01:56:38.481Z,6.89
2022-09-22T01:59:49.847Z,6.97
2022-09-22T02:03:03.900Z,6.94
2022-09-22T02:06:15.157Z,6.97
2022-09-22T02:09:24.451Z,6.85
2022-09-22T02:12:30.967Z,6.83
2022-09-22T02:15:53.719Z,6.84
2022-09-22T02:19:13.301Z,6.80
2022-09-22T02:22:20.515Z,6.78
2022-09-22T02:25:27.184Z,6.81
2022-09-22T02:28:34.681Z,6.76
2022-09-22T02:31:44.012Z,6.72
2022-09-22T02:34:53.565Z,6.77
2022-09-22T02:38:09.235Z,6.80
2022-09-22T02:41:26.175Z,6.82
2022-09-22T02:44:39.160Z,6.84
2022-09-22T02:47:50.798Z,6.81
2022-09-22T02:50:59.919Z,6.79
2022-09-22T02:54:05.898Z,6.81
2022-09-22T02:57:15.114Z,6.80
2022-09-22T03:00:26.424Z,6.68
2022-09-22T03:03:36.148Z,6.65
2022-09-22T03:06:44.958Z,6.66
2022-09-22T03:09:52.221Z,6.66
2022-09-22T03:13:17.837Z,6.69
2022-09-22T03:16:26.108Z,6.61
2022-09-22T03:19:32.073Z,6.60
2022-09-22T03:22:41.551Z,6.56
2022-09-22T03:25:47.853Z,6.56
2022-09-22T03:28:54.246Z,6.40
2022-09-22T03:32:00.680Z,6.39
2022-09-22T03:35:08.213Z,6.44
2022-09-22T03:38:17.423Z,6.41
2022-09-22T03:41:24.941Z,6.38
2022-09-22T03:44:33.859Z,6.40
2022-09-22T03:47:39.942Z,6.45
2022-09-22T03:50:47.713Z,6.40
2022-09-22T03:54:02.947Z,6.42
2022-09-22T03:57:12.330Z,6.35
2022-09-22T04:00:22.497Z,6.40
2022-09-22T04:03:29.603Z,6.36
2022-09-22T04:06:37.983Z,6.31
2022-09-22T04:10:02.948Z,6.27
2022-09-22T04:13:18.179Z,6.27
2022-09-22T04:16:26.576Z,6.25
2022-09-22T04:19:39.087Z,6.21
2022-09-22T04:22:58.945Z,6.25
2022-09-22T04:26:12.353Z,6.31
2022-09-22T04:29:37.080Z,6.26
2022-09-22T04:32:57.726Z,6.27
2022-09-22T04:36:10.985Z,6.28
2022-09-22T04:39:35.906Z,6.30
2022-09-22T04:42:48.782Z,6.27
2022-09-22T04:46:02.505Z,6.22
2022-09-22T04:49:22.550Z,6.19
2022-09-22T04:56:45.467Z,6.07
2022-09-22T05:00:00.773Z,6.10
2022-09-22T05:03:18.637Z,6.07
2022-09-22T05:06:45.620Z,6.05
2022-09-22T05:10:05.918Z,6.09
2022-09-22T05:13:35.836Z,6.07
2022-09-22T05:16:50.468Z,6.05
2022-09-22T05:20:11.221Z,5.96
2022-09-22T05:23:24.990Z,5.80
2022-09-22T05:26:56.330Z,5.82
2022-09-22T05:30:11.210Z,5.72
2022-09-22T05:33:40.355Z,5.82
2022-09-22T05:36:55.604Z,5.99
2022-09-22T05:40:08.686Z,5.95
2022-09-22T05:43:21.271Z,5.91
2022-09-22T05:46:29.650Z,5.96
2022-09-22T05:49:45.513Z,6.01
2022-09-22T05:52:55.688Z,6.11
2022-09-22T05:56:17.578Z,6.19
2022-09-22T05:59:29.553Z,6.26
2022-09-22T06:02:36.595Z,6.43
2022-09-22T06:05:52.012Z,6.67
2022-09-22T06:09:00.368Z,6.91
2022-09-22T06:12:09.465Z,7.15
2022-09-22T06:15:15.664Z,7.42
2022-09-22T06:18:24.776Z,7.64
2022-09-22T06:21:32.700Z,7.85
2022-09-22T06:24:41.377Z,8.14
2022-09-22T06:27:48.101Z,8.32
2022-09-22T06:30:54.300Z,8.55
2022-09-22T06:34:03.201Z,8.67
2022-09-22T06:37:14.706Z,8.85
2022-09-22T06:40:23.259Z,9.05
2022-09-22T06:43:31.905Z,9.31
2022-09-22T06:46:40.144Z,9.78
2022-09-22T06:49:47.742Z,10.78
2022-09-22T06:53:00.584Z,12.39
2022-09-22T06:56:08.279Z,14.23
2022-09-22T06:59:15.204Z,16.30
2022-09-22T07:02:23.167Z,18.23
2022-09-22T07:05:35.773Z,19.49
2022-09-22T07:08:59.516Z,20.46
2022-09-22T07:12:08.456Z,21.06
2022-09-22T07:15:17.713Z,20.00
2022-09-22T07:18:27.742Z,18.12
2022-09-22T07:21:41.413Z,16.44
2022-09-22T07:25:06.516Z,15.15
2022-09-22T07:28:23.806Z,14.00
2022-09-22T07:31:42.911Z,13.31
2022-09-22T07:34:52.162Z,12.82
2022-09-22T07:38:10.797Z,12.42
2022-09-22T07:41:22.619Z,12.16
2022-09-22T07:44:57.030Z,12.00
2022-09-22T07:48:27.053Z,11.88
2022-09-22T07:52:03.151Z,11.78
2022-09-22T07:55:11.918Z,11.76
2022-09-22T07:58:22.073Z,11.82
2022-09-22T08:01:46.069Z,11.87
2022-09-22T08:05:06.018Z,11.94
2022-09-22T08:08:20.813Z,11.98
2022-09-22T08:11:45.803Z,12.03
2022-09-22T08:15:06.454Z,12.15
2022-09-22T08:18:15.938Z,12.18
2022-09-22T08:21:23.165Z,12.11
2022-09-22T08:24:37.764Z,12.14
2022-09-22T08:27:51.955Z,12.20
2022-09-22T08:31:02.085Z,12.44
2022-09-22T08:34:22.251Z,12.70
2022-09-22T08:37:35.845Z,12.96
2022-09-22T08:40:48.798Z,13.22
2022-09-22T08:44:03.315Z,13.54
2022-09-22T08:47:41.649Z,13.69
2022-09-22T08:51:10.412Z,13.94
2022-09-22T08:54:22.231Z,14.13
2022-09-22T08:57:47.745Z,14.43
2022-09-22T09:01:07.506Z,14.74
2022-09-22T09:04:58.272Z,14.91
2022-09-22T09:08:20.031Z,15.20
2022-09-22T09:11:49.978Z,15.45
2022-09-22T09:15:33.767Z,15.74
2022-09-22T09:18:57.980Z,15.95
2022-09-22T09:22:29.234Z,16.11
2022-09-22T09:26:08.888Z,16.21
2022-09-22T09:29:28.355Z,16.39
2022-09-22T09:33:05.461Z,16.68
2022-09-22T09:36:25.608Z,16.91
2022-09-22T09:39:37.537Z,17.01
2022-09-22T09:42:40.166Z,17.12
2022-09-22T09:45:51.247Z,17.22
2022-09-22T09:49:06.509Z,17.44
2022-09-22T09:52:12.604Z,17.59
2022-09-22T09:55:27.021Z,17.64
2022-09-22T09:59:01.979Z,17.67
2022-09-22T10:02:05.561Z,17.77
2022-09-22T10:05:22.341Z,17.95
2022-09-22T10:08:25.001Z,17.99
2022-09-22T10:11:33.612Z,18.11
2022-09-22T10:14:36.369Z,18.18
2022-09-22T10:17:42.134Z,18.27
2022-09-22T10:20:45.198Z,18.28
2022-09-22T10:23:51.173Z,18.33
2022-09-22T10:26:57.306Z,18.40
2022-09-22T10:30:32.921Z,18.47
2022-09-22T10:33:39.375Z,18.53
2022-09-22T10:36:45.816Z,18.46
2022-09-22T10:39:50.710Z,18.45
2022-09-22T10:42:59.170Z,18.50
2022-09-22T10:46:18.879Z,18.59
2022-09-22T10:49:35.083Z,18.58
2022-09-22T10:52:47.536Z,18.57
2022-09-22T10:55:56.682Z,18.61
2022-09-22T10:59:15.458Z,18.61
2022-09-22T11:02:57.029Z,18.52
2022-09-22T11:06:32.709Z,18.56
2022-09-22T11:09:59.069Z,18.49
2022-09-22T11:13:12.691Z,18.46
2022-09-22T11:16:42.692Z,18.45
2022-09-22T11:20:06.841Z,18.50
2022-09-22T11:23:35.115Z,18.53
2022-09-22T11:26:48.154Z,18.55
2022-09-22T11:30:11.360Z,18.46
2022-09-22T11:33:44.586Z,18.47
2022-09-22T11:36:57.337Z,18.45
2022-09-22T11:40:20.928Z,18.51
2022-09-22T11:43:41.826Z,18.54
2022-09-22T11:47:00.958Z,18.71
2022-09-22T11:50:40.447Z,18.90
2022-09-22T11:54:11.103Z,18.91
2022-09-22T11:57:17.205Z,19.07
2022-09-22T12:00:22.123Z,19.20
2022-09-22T12:03:31.677Z,19.34
2022-09-22T12:06:41.264Z,19.45
2022-09-22T12:09:49.369Z,19.38
2022-09-22T12:12:52.985Z,19.47
2022-09-22T12:19:16.602Z,19.89
2022-09-22T12:22:25.573Z,20.02
2022-09-22T12:25:49.031Z,20.04
2022-09-22T12:28:52.395Z,20.08
2022-09-22T12:31:57.290Z,20.25
2022-09-22T12:35:01.425Z,20.48
2022-09-22T12:38:04.909Z,20.47
2022-09-22T12:41:10.122Z,20.46
2022-09-22T12:44:17.204Z,20.46
2022-09-22T12:47:23.142Z,20.51
2022-09-22T12:50:36.909Z,20.56
2022-09-22T12:53:43.104Z,20.60
2022-09-22T12:56:57.611Z,20.73
2022-09-22T13:00:20.628Z,20.64
2022-09-22T13:03:50.087Z,20.65
2022-09-22T13:07:01.849Z,20.62
2022-09-22T13:10:41.312Z,20.46
2022-09-22T13:13:51.538Z,20.34
2022-09-22T13:16:57.679Z,20.39
2022-09-22T13:20:17.251Z,20.52
2022-09-22T13:23:23.627Z,20.48
2022-09-22T13:26:31.837Z,20.52
2022-09-22T13:29:43.016Z,20.30
2022-09-22T13:32:55.864Z,20.23
2022-09-22T13:36:15.825Z,20.17
2022-09-22T13:39:24.969Z,20.11
2022-09-22T13:42:34.399Z,19.95
2022-09-22T13:45:45.212Z,19.92
2022-09-22T13:48:58.457Z,19.87
2022-09-22T13:52:10.990Z,19.92
2022-09-22T13:55:27.937Z,20.78
2022-09-22T13:58:41.475Z,22.10
2022-09-22T14:01:57.446Z,23.25
2022-09-22T14:05:10.082Z,24.36
2022-09-22T14:08:22.501Z,24.30
2022-09-22T14:11:38.491Z,24.56
2022-09-22T14:14:47.523Z,24.80
2022-09-22T14:18:00.360Z,25.14
2022-09-22T14:21:13.771Z,25.10
2022-09-22T14:24:20.990Z,24.65
2022-09-22T14:27:33.679Z,24.40
2022-09-22T14:30:43.319Z,24.09
2022-09-22T14:33:52.176Z,23.73
2022-09-22T14:37:01.988Z,23.49
2022-09-22T14:40:17.981Z,23.14
2022-09-22T14:43:28.470Z,22.43
2022-09-22T14:46:45.257Z,21.88
2022-09-22T14:50:07.909Z,21.51
2022-09-22T14:53:23.011Z,21.15
2022-09-22T14:56:33.441Z,20.84
2022-09-22T14:59:57.231Z,20.54
2022-09-22T15:03:05.788Z,20.35
2022-09-22T15:06:18.757Z,20.06
2022-09-22T15:09:30.659Z,19.86
2022-09-22T15:12:47.415Z,19.58
2022-09-22T15:15:56.347Z,19.40
2022-09-22T15:19:02.840Z,19.24
2022-09-22T15:22:13.185Z,19.07
2022-09-22T15:25:20.579Z,18.89
2022-09-22T15:28:30.123Z,18.79
2022-09-22T15:31:36.353Z,18.69
2022-09-22T15:34:45.527Z,18.59
2022-09-22T15:37:56.210Z,18.55
2022-09-22T15:41:03.082Z,18.46
2022-09-22T15:44:09.005Z,18.38
2022-09-22T15:47:17.352Z,18.40
2022-09-22T15:50:31.549Z,18.40
2022-09-22T15:53:40.349Z,18.39
2022-09-22T15:56:48.483Z,18.37
2022-09-22T15:59:54.606Z,18.31
2022-09-22T16:03:03.218Z,18.31
2022-09-22T16:06:12.877Z,18.26
2022-09-22T16:09:22.319Z,18.18
2022-09-22T16:12:35.665Z,18.11
2022-09-22T16:15:44.242Z,18.08
2022-09-22T16:18:51.057Z,17.94
2022-09-22T16:22:00.603Z,17.82
2022-09-22T16:25:13.538Z,17.70
2022-09-22T16:28:27.586Z,17.56
2022-09-22T16:31:41.395Z,17.45
2022-09-22T16:34:52.922Z,17.44
2022-09-22T16:38:04.696Z,17.36
2022-09-22T16:41:23.846Z,17.24
2022-09-22T16:44:39.767Z,17.15
2022-09-22T16:47:47.876Z,17.02
2022-09-22T16:51:01.192Z,16.94
2022-09-22T16:54:09.545Z,16.82
2022-09-22T16:57:20.173Z,16.74
2022-09-22T17:00:28.652Z,16.66
2022-09-22T17:03:35.495Z,16.62
2022-09-22T17:06:42.448Z,16.47
2022-09-22T17:09:50.249Z,16.35
2022-09-22T17:12:58.692Z,16.21
2022-09-22T17:16:13.421Z,16.12
2022-09-22T17:19:22.303Z,15.99
2022-09-22T17:22:30.915Z,15.91
2022-09-22T17:25:37.143Z,15.75
2022-09-22T17:28:45.862Z,15.59
2022-09-22T17:31:52.246Z,15.43
2022-09-22T17:35:02.226Z,15.22
2022-09-22T17:38:09.841Z,15.06
2022-09-22T17:41:20.439Z,14.84
2022-09-22T17:44:29.878Z,14.69
2022-09-22T17:47:52.835Z,14.52
2022-09-22T17:51:18.575Z,14.29
2022-09-22T17:54:42.598Z,14.12
2022-09-22T17:57:51.949Z,14.02
2022-09-22T18:01:00.662Z,13.98
2022-09-22T18:04:07.225Z,13.84
2022-09-22T18:07:18.443Z,13.77
2022-09-22T18:10:33.389Z,13.67
2022-09-22T18:13:43.744Z,13.62
2022-09-22T18:16:54.247Z,13.57
2022-09-22T18:20:03.649Z,13.50
2022-09-22T18:23:09.738Z,13.45
2022-09-22T18:26:18.848Z,13.38
2022-09-22T18:29:26.604Z,13.30
2022-09-22T18:32:41.528Z,13.25
2022-09-22T18:35:51.700Z,13.17
2022-09-22T18:39:00.803Z,13.15
2022-09-22T18:42:11.864Z,13.10
2022-09-22T18:45:18.871Z,13.06
2022-09-22T18:48:28.441Z,13.01
2022-09-22T18:51:39.085Z,12.93
2022-09-22T18:54:46.378Z,12.89
2022-09-22T18:57:55.506Z,12.88
2022-09-22T19:01:03.006Z,12.79
2022-09-22T19:04:19.052Z,12.79
2022-09-22T19:07:42.964Z,12.74
2022-09-22T19:10:52.300Z,12.67
2022-09-22T19:13:59.268Z,12.58
2022-09-22T19:17:05.555Z,12.51
2022-09-22T19:20:15.810Z,12.49
2022-09-22T19:23:21.972Z,12.46
2022-09-22T19:26:30.229Z,12.44
2022-09-22T19:29:36.758Z,12.41
2022-09-22T19:32:43.325Z,12.38
2022-09-22T19:35:52.515Z,12.34
2022-09-22T19:38:59.680Z,12.27
2022-09-22T19:42:06.668Z,12.19
2022-09-22T19:45:14.200Z,12.13
2022-09-22T19:48:20.971Z,12.06
2022-09-22T19:51:29.026Z,12.00
2022-09-22T19:54:38.263Z,11.92
2022-09-22T19:57:44.455Z,11.91
2022-09-22T20:00:53.225Z,11.86
2022-09-22T20:03:59.899Z,11.82
2022-09-22T20:07:08.223Z,11.78
2022-09-22T20:10:14.841Z,11.77
2022-09-22T20:13:37.740Z,11.73
2022-09-22T20:16:46.680Z,11.69
2022-09-22T20:19:55.814Z,11.65
2022-09-22T20:23:28.554Z,11.60
2022-09-22T20:26:39.225Z,11.58
2022-09-22T20:29:44.980Z,11.57
2022-09-22T20:32:53.369Z,11.55
2022-09-22T20:36:00.785Z,11.51
2022-09-22T20:39:10.959Z,11.55
2022-09-22T20:42:17.250Z,11.51
2022-09-22T20:45:25.151Z,11.52
2022-09-22T20:48:32.004Z,11.51
2022-09-22T20:51:42.282Z,11.42
2022-09-22T20:54:54.696Z,11.36
2022-09-22T20:58:02.543Z,11.29
2022-09-22T21:01:12.494Z,11.27
2022-09-22T21:04:21.362Z,11.29
2022-09-22T21:07:29.893Z,11.23
2022-09-22T21:10:37.927Z,11.17
2022-09-22T21:13:44.560Z,11.09
2022-09-22T21:16:52.160Z,11.00
2022-09-22T21:20:02.340Z,10.97
2022-09-22T21:23:09.923Z,10.92
2022-09-22T21:26:18.071Z,10.83
2022-09-22T21:29:26.208Z,10.81
2022-09-22T21:32:35.565Z,10.82
2022-09-22T21:35:42.018Z,10.76
2022-09-22T21:38:51.836Z,10.70
2022-09-22T21:42:00.809Z,10.66
2022-09-22T21:45:08.117Z,10.62
2022-09-22T21:48:15.976Z,10.55
2022-09-22T21:51:32.507Z,10.53
2022-09-22T21:54:42.502Z,10.49
2022-09-22T21:57:58.653Z,10.47
2022-09-22T22:01:18.116Z,10.38
2022-09-22T22:04:33.474Z,10.33
2022-09-22T22:07:40.862Z,10.32
2022-09-22T22:10:53.414Z,10.23
2022-09-22T22:14:15.374Z,10.14
2022-09-22T22:17:23.906Z,10.08
2022-09-22T22:20:33.150Z,10.07
2022-09-22T22:23:47.380Z,10.07
2022-09-22T22:27:06.865Z,10.10
2022-09-22T22:30:27.581Z,10.12
2022-09-22T22:33:38.582Z,10.09
2022-09-22T22:36:51.436Z,10.08
2022-09-22T22:39:56.454Z,10.03
2022-09-22T22:43:07.323Z,10.02
2022-09-22T22:46:20.377Z,9.99
2022-09-22T22:49:43.175Z,9.94
2022-09-22T22:53:05.966Z,9.85
2022-09-22T22:56:31.756Z,9.85
2022-09-22T22:59:42.135Z,9.85
2022-09-22T23:03:14.243Z,9.83
2022-09-22T23:06:40.737Z,9.83
2022-09-22T23:10:14.034Z,9.75
2022-09-22T23:13:30.755Z,9.75
2022-09-22T23:16:55.860Z,9.72
2022-09-22T23:20:11.458Z,9.71
2022-09-22T23:23:37.191Z,9.72
2022-09-22T23:26:46.202Z,9.70
2022-09-22T23:30:08.703Z,9.66
2022-09-22T23:33:18.273Z,9.55
2022-09-22T23:36:34.547Z,9.56
2022-09-22T23:39:43.362Z,9.54
2022-09-22T23:42:50.398Z,9.49
2022-09-22T23:45:56.599Z,9.42
2022-09-22T23:49:03.223Z,9.38
2022-09-22T23:52:16.442Z,9.34
2022-09-22T23:55:22.890Z,9.31
2022-09-22T23:58:29.167Z,9.30
